createdAt,value
2018-04-27T00:00:13.821Z,0
2018-04-27T00:01:07.800Z,0
2018-04-27T00:02:08.352Z,0
2018-04-27T00:03:07.996Z,0
2018-04-27T00:04:08.559Z,0
2018-04-27T00:05:09.239Z,0
2018-04-27T00:06:08.582Z,0
2018-04-27T00:07:08.945Z,0
2018-04-27T00:08:09.468Z,0
2018-04-27T00:09:09.619Z,0
2018-04-27T00:10:08.927Z,0
2018-04-27T00:11:09.822Z,0
2018-04-27T00:12:09.509Z,0
2018-04-27T00:13:09.705Z,0
2018-04-27T00:14:10.102Z,0
2018-04-27T00:15:09.718Z,0
2018-04-27T00:16:11.375Z,0
2018-04-27T00:17:10.488Z,0
2018-04-27T00:18:10.438Z,0
2018-04-27T00:19:10.193Z,0
2018-04-27T00:20:10.367Z,0
2018-04-27T00:21:11.618Z,0
2018-04-27T00:22:10.984Z,0
2018-04-27T00:23:11.311Z,0
2018-04-27T00:24:11.219Z,0
2018-04-27T00:25:11.709Z,0
2018-04-27T00:26:11.662Z,0
2018-04-27T00:27:11.724Z,0
2018-04-27T00:28:11.718Z,0
2018-04-27T00:29:11.822Z,0
2018-04-27T00:30:11.814Z,0
2018-04-27T00:31:11.629Z,0
2018-04-27T00:32:11.787Z,0
2018-04-27T00:33:11.125Z,0
2018-04-27T00:34:11.915Z,0
2018-04-27T00:35:12.015Z,0
2018-04-27T00:36:11.593Z,0
2018-04-27T00:37:12.167Z,0
2018-04-27T00:38:12.302Z,0
2018-04-27T00:39:12.487Z,0
2018-04-27T00:40:12.437Z,0
2018-04-27T00:41:12.795Z,0
2018-04-27T00:42:13.007Z,0
2018-04-27T00:43:12.765Z,0
2018-04-27T00:44:13.488Z,0
2018-04-27T00:45:12.919Z,0
2018-04-27T00:46:13.085Z,0
2018-04-27T00:47:13.622Z,0
2018-04-27T00:48:13.665Z,0
2018-04-27T00:49:13.370Z,0
2018-04-27T00:50:13.853Z,0
2018-04-27T00:51:13.879Z,0
2018-04-27T00:52:13.848Z,0
2018-04-27T00:53:13.927Z,0
2018-04-27T00:54:13.368Z,0
2018-04-27T00:55:13.730Z,0
2018-04-27T00:56:13.728Z,0
2018-04-27T00:57:14.388Z,0
2018-04-27T00:58:14.410Z,0
2018-04-27T00:59:15.122Z,0
2018-04-27T01:00:16.046Z,0
2018-04-27T01:01:14.961Z,0
2018-04-27T01:02:15.374Z,0
2018-04-27T01:03:15.754Z,0
2018-04-27T01:04:15.649Z,0
2018-04-27T01:05:15.375Z,0
2018-04-27T01:06:15.843Z,0
2018-04-27T01:07:15.977Z,0
2018-04-27T01:08:15.835Z,0
2018-04-27T01:09:16.153Z,0
2018-04-27T01:10:16.555Z,0
2018-04-27T01:11:16.691Z,0
2018-04-27T01:12:17.060Z,0
2018-04-27T01:13:17.033Z,0
2018-04-27T01:14:16.634Z,0
2018-04-27T01:15:17.029Z,0
2018-04-27T01:16:17.695Z,0
2018-04-27T01:17:17.469Z,0
2018-04-27T01:18:17.878Z,0
2018-04-27T01:19:18.307Z,0
2018-04-27T01:20:18.684Z,0
2018-04-27T01:21:18.711Z,0
2018-04-27T01:22:18.657Z,0
2018-04-27T01:23:19.461Z,0
2018-04-27T01:24:18.848Z,0
2018-04-27T01:25:18.854Z,0
2018-04-27T01:26:18.911Z,0
2018-04-27T01:27:18.625Z,0
2018-04-27T01:28:20.090Z,0
2018-04-27T01:29:18.908Z,0
2018-04-27T01:30:20.532Z,0
2018-04-27T01:31:20.284Z,0
2018-04-27T01:32:20.326Z,0
2018-04-27T01:33:20.073Z,0
2018-04-27T01:34:19.042Z,0
2018-04-27T01:35:19.605Z,0
2018-04-27T01:36:19.655Z,0
2018-04-27T01:37:18.869Z,0
2018-04-27T01:38:19.826Z,0
2018-04-27T01:39:19.409Z,0
2018-04-27T01:40:19.133Z,0
2018-04-27T01:41:19.556Z,0
2018-04-27T01:42:19.874Z,0
2018-04-27T01:43:20.367Z,0
2018-04-27T01:44:21.106Z,0
2018-04-27T01:45:20.912Z,0
2018-04-27T01:46:21.393Z,0
2018-04-27T01:47:21.255Z,0
2018-04-27T01:48:21.451Z,0
2018-04-27T01:49:21.728Z,0
2018-04-27T01:50:21.889Z,0
2018-04-27T01:51:21.960Z,0
2018-04-27T01:52:24.073Z,0
2018-04-27T01:53:22.551Z,0
2018-04-27T01:54:22.738Z,0
2018-04-27T01:55:23.500Z,0
2018-04-27T01:56:23.288Z,0
2018-04-27T01:57:23.612Z,0
2018-04-27T01:58:23.243Z,0
2018-04-27T01:59:23.981Z,0
2018-04-27T02:00:24.159Z,0
2018-04-27T02:01:24.084Z,0
2018-04-27T02:02:24.274Z,0
2018-04-27T02:03:23.970Z,0
2018-04-27T02:04:24.087Z,0
2018-04-27T02:05:23.931Z,0
2018-04-27T02:06:23.875Z,0
2018-04-27T02:07:24.284Z,0
2018-04-27T02:08:24.584Z,0
2018-04-27T02:09:24.618Z,0
2018-04-27T02:10:24.844Z,0
2018-04-27T02:11:24.917Z,0
2018-04-27T02:12:25.063Z,0
2018-04-27T02:13:24.999Z,0
2018-04-27T02:14:24.736Z,0
2018-04-27T02:15:24.817Z,0
2018-04-27T02:16:25.039Z,0
2018-04-27T02:17:25.241Z,0
2018-04-27T02:18:25.526Z,0
2018-04-27T02:19:25.348Z,0
2018-04-27T02:20:25.296Z,0
2018-04-27T02:21:25.340Z,0
2018-04-27T02:22:25.259Z,0
2018-04-27T02:23:25.570Z,0
2018-04-27T02:24:26.322Z,0
2018-04-27T02:25:26.522Z,0
2018-04-27T02:26:25.757Z,0
2018-04-27T02:27:25.708Z,0
2018-04-27T02:28:26.273Z,0
2018-04-27T02:29:26.480Z,0
2018-04-27T02:30:26.100Z,0
2018-04-27T02:31:26.576Z,0
2018-04-27T02:32:26.775Z,0
2018-04-27T02:33:27.265Z,0
2018-04-27T02:34:26.779Z,0
2018-04-27T02:35:27.258Z,0
2018-04-27T02:36:27.738Z,0
2018-04-27T02:37:27.221Z,0
2018-04-27T02:38:27.785Z,0
2018-04-27T02:39:27.879Z,0
2018-04-27T02:40:27.575Z,0
2018-04-27T02:41:27.890Z,0
2018-04-27T02:42:27.890Z,0
2018-04-27T02:43:27.661Z,0
2018-04-27T02:44:27.958Z,0
2018-04-27T02:45:27.513Z,0
2018-04-27T02:46:28.319Z,0
2018-04-27T02:47:28.222Z,0
2018-04-27T02:48:29.294Z,0
2018-04-27T02:49:28.480Z,0
2018-04-27T02:50:29.397Z,0
2018-04-27T02:51:28.911Z,0
2018-04-27T02:52:29.369Z,0
2018-04-27T02:53:28.860Z,0
2018-04-27T02:54:29.414Z,0
2018-04-27T02:55:29.160Z,0
2018-04-27T02:56:28.951Z,0
2018-04-27T02:57:29.516Z,0
2018-04-27T02:58:29.877Z,0
2018-04-27T02:59:29.269Z,0
2018-04-27T03:00:29.378Z,0
2018-04-27T03:01:29.849Z,0
2018-04-27T03:02:29.730Z,0
2018-04-27T03:03:29.093Z,0
2018-04-27T03:04:29.479Z,0
2018-04-27T03:05:28.629Z,0
2018-04-27T03:06:29.447Z,0
2018-04-27T03:07:29.473Z,0
2018-04-27T03:08:29.480Z,0
2018-04-27T03:09:29.271Z,0
2018-04-27T03:10:29.011Z,0
2018-04-27T03:11:29.828Z,0
2018-04-27T03:12:29.553Z,0
2018-04-27T03:13:29.883Z,0
2018-04-27T03:14:29.991Z,4
2018-04-27T03:15:30.105Z,4
2018-04-27T03:16:30.569Z,0
2018-04-27T03:17:30.620Z,0
2018-04-27T03:18:30.812Z,4
2018-04-27T03:19:30.461Z,0
2018-04-27T03:20:30.647Z,4
2018-04-27T03:21:31.400Z,4
2018-04-27T03:22:31.145Z,4
2018-04-27T03:23:31.183Z,4
2018-04-27T03:24:30.950Z,4
2018-04-27T03:25:31.698Z,4
2018-04-27T03:26:31.713Z,8
2018-04-27T03:27:31.482Z,12
2018-04-27T03:28:31.759Z,8
2018-04-27T03:29:32.326Z,8
2018-04-27T03:30:32.258Z,12
2018-04-27T03:31:31.749Z,16
2018-04-27T03:32:31.780Z,16
2018-04-27T03:33:32.864Z,20
2018-04-27T03:34:32.392Z,20
2018-04-27T03:35:32.361Z,20
2018-04-27T03:36:32.605Z,24
2018-04-27T03:37:32.644Z,28
2018-04-27T03:38:32.379Z,32
2018-04-27T03:39:32.627Z,36
2018-04-27T03:40:32.883Z,36
2018-04-27T03:41:33.226Z,44
2018-04-27T03:42:33.211Z,48
2018-04-27T03:43:32.945Z,52
2018-04-27T03:44:33.539Z,60
2018-04-27T03:45:33.757Z,64
2018-04-27T03:46:33.696Z,72
2018-04-27T03:47:33.903Z,76
2018-04-27T03:48:34.350Z,84
2018-04-27T03:49:34.838Z,88
2018-04-27T03:50:34.860Z,96
2018-04-27T03:51:34.621Z,104
2018-04-27T03:52:34.884Z,112
2018-04-27T03:53:34.919Z,120
2018-04-27T03:54:34.693Z,128
2018-04-27T03:55:34.988Z,140
2018-04-27T03:56:34.735Z,152
2018-04-27T03:57:34.977Z,164
2018-04-27T03:58:35.074Z,176
2018-04-27T03:59:35.373Z,184
2018-04-27T04:00:35.327Z,196
2018-04-27T04:01:35.639Z,208
2018-04-27T04:02:35.846Z,220
2018-04-27T04:03:35.951Z,228
2018-04-27T04:04:36.867Z,240
2018-04-27T04:05:36.645Z,260
2018-04-27T04:06:37.671Z,276
2018-04-27T04:07:37.066Z,284
2018-04-27T04:08:36.710Z,304
2018-04-27T04:09:36.398Z,316
2018-04-27T04:10:36.755Z,328
2018-04-27T04:11:36.671Z,336
2018-04-27T04:12:36.732Z,352
2018-04-27T04:13:36.761Z,376
2018-04-27T04:14:36.989Z,404
2018-04-27T04:15:37.698Z,444
2018-04-27T04:16:37.318Z,468
2018-04-27T04:17:37.481Z,484
2018-04-27T04:18:37.220Z,508
2018-04-27T04:19:37.374Z,536
2018-04-27T04:20:37.761Z,580
2018-04-27T04:21:37.563Z,604
2018-04-27T04:22:37.698Z,628
2018-04-27T04:23:37.743Z,660
2018-04-27T04:24:38.396Z,712
2018-04-27T04:25:38.411Z,760
2018-04-27T04:26:38.450Z,816
2018-04-27T04:27:38.475Z,848
2018-04-27T04:28:38.334Z,844
2018-04-27T04:29:38.994Z,852
2018-04-27T04:30:39.411Z,876
2018-04-27T04:31:39.149Z,908
2018-04-27T04:32:39.553Z,888
2018-04-27T04:33:39.960Z,888
2018-04-27T04:34:39.924Z,900
2018-04-27T04:35:40.335Z,920
2018-04-27T04:36:40.322Z,960
2018-04-27T04:37:40.715Z,992
2018-04-27T04:38:40.544Z,1096
2018-04-27T04:39:40.928Z,1164
2018-04-27T04:40:40.942Z,1228
2018-04-27T04:41:40.749Z,1308
2018-04-27T04:42:41.096Z,1384
2018-04-27T04:43:40.703Z,1392
2018-04-27T04:44:41.262Z,1396
2018-04-27T04:45:40.633Z,1320
2018-04-27T04:46:41.705Z,1260
2018-04-27T04:47:42.242Z,1240
2018-04-27T04:48:42.115Z,1232
2018-04-27T04:49:42.203Z,1248
2018-04-27T04:50:42.744Z,1200
2018-04-27T04:51:42.483Z,1228
2018-04-27T04:52:43.058Z,1184
2018-04-27T04:53:43.491Z,1104
2018-04-27T04:54:42.897Z,1080
2018-04-27T04:55:43.244Z,1060
2018-04-27T04:56:43.024Z,956
2018-04-27T04:57:42.790Z,1016
2018-04-27T04:58:43.882Z,1124
2018-04-27T04:59:43.564Z,1240
2018-04-27T05:00:45.283Z,1368
2018-04-27T05:01:47.219Z,1520
2018-04-27T05:02:43.525Z,1668
2018-04-27T05:03:43.687Z,1804
2018-04-27T05:04:43.813Z,1832
2018-04-27T05:05:45.170Z,1764
2018-04-27T05:06:45.741Z,1784
2018-04-27T05:07:44.874Z,1768
2018-04-27T05:08:44.785Z,1796
2018-04-27T05:09:45.918Z,1712
2018-04-27T05:10:46.245Z,1572
2018-04-27T05:11:45.761Z,1748
2018-04-27T05:12:45.755Z,1704
2018-04-27T05:13:45.550Z,1680
2018-04-27T05:14:45.277Z,1616
2018-04-27T05:15:47.217Z,1600
2018-04-27T05:16:46.141Z,1668
2018-04-27T05:17:47.038Z,1704
2018-04-27T05:18:46.659Z,2100
2018-04-27T05:19:46.997Z,2192
2018-04-27T05:20:47.078Z,1956
2018-04-27T05:21:47.632Z,1944
2018-04-27T05:22:47.723Z,2512
2018-04-27T05:23:47.046Z,3036
2018-04-27T05:24:47.365Z,3144
2018-04-27T05:25:48.046Z,3604
2018-04-27T05:26:49.396Z,3624
2018-04-27T05:27:49.112Z,3544
2018-04-27T05:28:48.990Z,3868
2018-04-27T05:29:48.912Z,3788
2018-04-27T05:30:48.784Z,3980
2018-04-27T05:31:49.304Z,4028
2018-04-27T05:32:50.271Z,4236
2018-04-27T05:33:49.614Z,4588
2018-04-27T05:34:50.165Z,4564
2018-04-27T05:35:50.450Z,4568
2018-04-27T05:36:49.894Z,3948
2018-04-27T05:37:50.628Z,4304
2018-04-27T05:38:49.857Z,4988
2018-04-27T05:39:50.134Z,4476
2018-04-27T05:40:50.692Z,3624
2018-04-27T05:41:50.425Z,3604
2018-04-27T05:42:50.664Z,3504
2018-04-27T05:43:51.628Z,3428
2018-04-27T05:44:51.380Z,3552
2018-04-27T05:45:51.477Z,3732
2018-04-27T05:46:51.349Z,4244
2018-04-27T05:47:51.940Z,4236
2018-04-27T05:48:52.013Z,4592
2018-04-27T05:49:51.843Z,5072
2018-04-27T05:50:52.229Z,5520
2018-04-27T05:51:51.933Z,5148
2018-04-27T05:52:52.340Z,6028
2018-04-27T05:53:51.893Z,6292
2018-04-27T05:54:52.961Z,6748
2018-04-27T05:55:52.569Z,5636
2018-04-27T05:56:52.833Z,5136
2018-04-27T05:57:53.016Z,6136
2018-04-27T05:58:53.498Z,6248
2018-04-27T05:59:52.904Z,5504
2018-04-27T06:00:53.559Z,5232
2018-04-27T06:01:53.758Z,5316
2018-04-27T06:02:54.252Z,5276
2018-04-27T06:03:53.984Z,5992
2018-04-27T06:04:54.055Z,6384
2018-04-27T06:05:54.336Z,6188
2018-04-27T06:06:54.798Z,5496
2018-04-27T06:07:54.338Z,5132
2018-04-27T06:08:54.868Z,5292
2018-04-27T06:09:54.629Z,5112
2018-04-27T06:10:54.642Z,4480
2018-04-27T06:11:54.991Z,4756
2018-04-27T06:12:55.286Z,5076
2018-04-27T06:13:55.038Z,5484
2018-04-27T06:14:55.256Z,5452
2018-04-27T06:15:54.979Z,6372
2018-04-27T06:16:55.821Z,6840
2018-04-27T06:17:55.614Z,7120
2018-04-27T06:18:55.924Z,6844
2018-04-27T06:19:55.660Z,6784
2018-04-27T06:20:56.282Z,6756
2018-04-27T06:21:56.033Z,5600
2018-04-27T06:22:56.382Z,5268
2018-04-27T06:23:56.418Z,5432
2018-04-27T06:24:56.666Z,5280
2018-04-27T06:25:56.534Z,6116
2018-04-27T06:26:56.269Z,4360
2018-04-27T06:27:56.495Z,3764
2018-04-27T06:28:56.589Z,4568
2018-04-27T06:29:56.350Z,4960
2018-04-27T06:30:57.098Z,4548
2018-04-27T06:31:57.902Z,5244
2018-04-27T06:32:57.732Z,6708
2018-04-27T06:33:57.868Z,7068
2018-04-27T06:34:57.277Z,7240
2018-04-27T06:35:57.748Z,6936
2018-04-27T06:36:57.975Z,6872
2018-04-27T06:37:58.574Z,6524
2018-04-27T06:38:58.322Z,6960
2018-04-27T06:39:58.144Z,6636
2018-04-27T06:40:58.697Z,6660
2018-04-27T06:41:58.926Z,6872
2018-04-27T06:42:58.716Z,6684
2018-04-27T06:43:59.551Z,6088
2018-04-27T06:44:59.467Z,6248
2018-04-27T06:45:59.194Z,6524
2018-04-27T06:46:59.603Z,6652
2018-04-27T06:47:59.955Z,6836
2018-04-27T06:49:00.629Z,6672
2018-04-27T06:50:00.387Z,7104
2018-04-27T06:51:00.570Z,7220
2018-04-27T06:52:01.081Z,6812
2018-04-27T06:53:02.651Z,6168
2018-04-27T06:54:01.508Z,5360
2018-04-27T06:55:01.833Z,5276
2018-04-27T06:56:01.851Z,4856
2018-04-27T06:57:02.160Z,5184
2018-04-27T06:58:02.101Z,5276
2018-04-27T06:59:02.329Z,5556
2018-04-27T07:01:02.682Z,5988
2018-04-27T07:02:02.713Z,5112
2018-04-27T07:03:02.747Z,6280
2018-04-27T07:04:02.780Z,5576
2018-04-27T07:05:02.564Z,6020
2018-04-27T07:06:02.568Z,6320
2018-04-27T07:07:03.014Z,7240
2018-04-27T07:08:03.259Z,6888
2018-04-27T07:09:03.766Z,6528
2018-04-27T07:10:03.451Z,6292
2018-04-27T07:11:03.931Z,5728
2018-04-27T07:12:03.895Z,6076
2018-04-27T07:13:04.211Z,7076
2018-04-27T07:14:03.686Z,7368
2018-04-27T07:15:03.879Z,7292
2018-04-27T07:16:04.785Z,7776
2018-04-27T07:17:05.057Z,8472
2018-04-27T07:18:04.862Z,9604
2018-04-27T07:19:05.157Z,11024
2018-04-27T07:20:05.029Z,7940
2018-04-27T07:21:05.220Z,10580
2018-04-27T07:22:05.755Z,10344
2018-04-27T07:23:05.271Z,12416
2018-04-27T07:24:05.033Z,11896
2018-04-27T07:25:05.789Z,11920
2018-04-27T07:26:06.312Z,14396
2018-04-27T07:27:05.645Z,13432
2018-04-27T07:28:05.788Z,14880
2018-04-27T07:29:05.215Z,15072
2018-04-27T07:30:05.543Z,19520
2018-04-27T07:31:05.784Z,21440
2018-04-27T07:32:06.168Z,21536
2018-04-27T07:33:05.994Z,21504
2018-04-27T07:34:06.090Z,19584
2018-04-27T07:35:05.739Z,15136
2018-04-27T07:36:05.753Z,9720
2018-04-27T07:37:05.505Z,11364
2018-04-27T07:38:05.765Z,10388
2018-04-27T07:39:06.021Z,7904
2018-04-27T07:40:05.821Z,6564
2018-04-27T07:41:05.863Z,6552
2018-04-27T07:42:06.629Z,5788
2018-04-27T07:43:06.898Z,5368
2018-04-27T07:44:06.167Z,6536
2018-04-27T07:45:06.959Z,6644
2018-04-27T07:46:06.451Z,7700
2018-04-27T07:47:06.987Z,8036
2018-04-27T07:48:06.414Z,8936
2018-04-27T07:49:06.731Z,7896
2018-04-27T07:50:07.121Z,9392
2018-04-27T07:51:06.532Z,8084
2018-04-27T07:52:07.378Z,9400
2018-04-27T07:53:07.413Z,8944
2018-04-27T07:54:07.468Z,8164
2018-04-27T07:55:07.339Z,9928
2018-04-27T07:56:07.264Z,9052
2018-04-27T07:57:07.357Z,7180
2018-04-27T07:58:07.845Z,5960
2018-04-27T07:59:07.884Z,6184
2018-04-27T08:00:13.551Z,5320
2018-04-27T08:01:09.533Z,6804
2018-04-27T08:02:10.030Z,7264
2018-04-27T08:03:10.018Z,7136
2018-04-27T08:04:09.790Z,7836
2018-04-27T08:05:09.649Z,8680
2018-04-27T08:06:09.923Z,8472
2018-04-27T08:07:10.515Z,8884
2018-04-27T08:08:10.336Z,8396
2018-04-27T08:09:10.451Z,7860
2018-04-27T08:10:10.747Z,7764
2018-04-27T08:11:10.522Z,7916
2018-04-27T08:12:10.901Z,8320
2018-04-27T08:13:11.022Z,9500
2018-04-27T08:14:11.409Z,9312
2018-04-27T08:15:11.602Z,7628
2018-04-27T08:16:11.329Z,8604
2018-04-27T08:17:11.719Z,9872
2018-04-27T08:18:12.137Z,10772
2018-04-27T08:19:12.225Z,9580
2018-04-27T08:20:12.883Z,10092
2018-04-27T08:21:12.636Z,10392
2018-04-27T08:22:12.591Z,10616
2018-04-27T08:23:13.228Z,11032
2018-04-27T08:24:13.704Z,10720
2018-04-27T08:25:13.190Z,10500
2018-04-27T08:26:13.576Z,9432
2018-04-27T08:27:13.124Z,8972
2018-04-27T08:28:13.404Z,9532
2018-04-27T08:29:13.559Z,9468
2018-04-27T08:30:13.247Z,9108
2018-04-27T08:31:13.351Z,9816
2018-04-27T08:32:14.904Z,10500
2018-04-27T08:33:14.435Z,10616
2018-04-27T08:34:15.127Z,10660
2018-04-27T08:35:14.956Z,10640
2018-04-27T08:36:14.909Z,10464
2018-04-27T08:37:14.668Z,10772
2018-04-27T08:38:15.297Z,11064
2018-04-27T08:39:15.465Z,11316
2018-04-27T08:40:15.252Z,10828
2018-04-27T08:41:15.651Z,10172
2018-04-27T08:42:15.872Z,9544
2018-04-27T08:43:15.809Z,9584
2018-04-27T08:44:16.693Z,8940
2018-04-27T08:45:16.570Z,8548
2018-04-27T08:46:17.931Z,8104
2018-04-27T08:47:16.765Z,8400
2018-04-27T08:48:16.908Z,8368
2018-04-27T08:49:17.519Z,8376
2018-04-27T08:50:17.954Z,8268
2018-04-27T08:51:17.172Z,8292
2018-04-27T08:52:18.360Z,8236
2018-04-27T08:53:18.268Z,8348
2018-04-27T08:54:17.737Z,7892
2018-04-27T08:55:17.470Z,8536
2018-04-27T08:56:18.004Z,8640
2018-04-27T08:57:17.028Z,8912
2018-04-27T08:58:17.265Z,9056
2018-04-27T08:59:16.890Z,9056
2018-04-27T09:00:30.372Z,8780
2018-04-27T09:01:29.893Z,8920
2018-04-27T09:02:30.897Z,8696
2018-04-27T09:03:30.355Z,8548
2018-04-27T09:04:30.884Z,8508
2018-04-27T09:05:30.037Z,8548
2018-04-27T09:06:30.879Z,8336
2018-04-27T09:07:30.632Z,8268
2018-04-27T09:08:30.141Z,7400
2018-04-27T09:09:30.991Z,7880
2018-04-27T09:10:30.729Z,7540
2018-04-27T09:11:31.444Z,7264
2018-04-27T09:12:31.308Z,7364
2018-04-27T09:13:31.252Z,6944
2018-04-27T09:14:30.875Z,6824
2018-04-27T09:15:32.387Z,6708
2018-04-27T09:16:31.459Z,6460
2018-04-27T09:17:31.939Z,6332
2018-04-27T09:18:32.293Z,6248
2018-04-27T09:19:31.750Z,6324
2018-04-27T09:20:31.915Z,6308
2018-04-27T09:21:32.250Z,6308
2018-04-27T09:22:31.678Z,6648
2018-04-27T09:23:31.691Z,6652
2018-04-27T09:24:32.391Z,6212
2018-04-27T09:25:32.189Z,5904
2018-04-27T09:26:32.981Z,6140
2018-04-27T09:27:33.401Z,6160
2018-04-27T09:28:33.287Z,6288
2018-04-27T09:29:34.009Z,6584
2018-04-27T09:30:33.907Z,6548
2018-04-27T09:31:34.355Z,6948
2018-04-27T09:32:35.449Z,7648
2018-04-27T09:33:34.848Z,7928
2018-04-27T09:34:35.520Z,8228
2018-04-27T09:35:35.896Z,8392
2018-04-27T09:36:35.643Z,8100
2018-04-27T09:37:36.464Z,8572
2018-04-27T09:38:36.400Z,8632
2018-04-27T09:39:37.183Z,8732
2018-04-27T09:40:36.988Z,8428
2018-04-27T09:41:36.660Z,8620
2018-04-27T09:42:37.374Z,8996
2018-04-27T09:43:37.499Z,8368
2018-04-27T09:44:37.487Z,6960
2018-04-27T09:45:36.957Z,8712
2018-04-27T09:46:37.391Z,9060
2018-04-27T09:47:37.752Z,8864
2018-04-27T09:48:37.400Z,8420
2018-04-27T09:49:37.571Z,3604
2018-04-27T09:50:37.830Z,6116
2018-04-27T09:51:38.214Z,9580
2018-04-27T09:52:38.501Z,9216
2018-04-27T09:53:38.668Z,8536
2018-04-27T09:54:39.032Z,9140
2018-04-27T09:55:38.969Z,8836
2018-04-27T09:56:39.151Z,8772
2018-04-27T09:57:39.570Z,9252
2018-04-27T09:58:39.407Z,6536
2018-04-27T09:59:39.894Z,8952
2018-04-27T10:00:39.832Z,8612
2018-04-27T10:01:39.853Z,8536
2018-04-27T10:02:39.934Z,8528
2018-04-27T10:03:39.760Z,8384
2018-04-27T10:04:40.543Z,7844
2018-04-27T10:05:41.008Z,2400
2018-04-27T10:06:40.611Z,3424
2018-04-27T10:07:40.888Z,7360
2018-04-27T10:08:41.227Z,6660
2018-04-27T10:09:40.950Z,5896
2018-04-27T10:10:41.447Z,3236
2018-04-27T10:11:41.689Z,7000
2018-04-27T10:12:41.991Z,3196
2018-04-27T10:13:41.732Z,4124
2018-04-27T10:14:41.816Z,3780
2018-04-27T10:15:41.793Z,7316
2018-04-27T10:16:42.048Z,7996
2018-04-27T10:17:41.967Z,8280
2018-04-27T10:18:42.558Z,7972
2018-04-27T10:19:42.588Z,3352
2018-04-27T10:20:42.833Z,2924
2018-04-27T10:21:42.577Z,2568
2018-04-27T10:22:42.778Z,2340
2018-04-27T10:23:42.751Z,2476
2018-04-27T10:24:43.820Z,2504
2018-04-27T10:25:43.424Z,2364
2018-04-27T10:26:43.109Z,2120
2018-04-27T10:27:43.196Z,1920
2018-04-27T10:28:43.449Z,2060
2018-04-27T10:29:44.242Z,2800
2018-04-27T10:30:43.490Z,7540
2018-04-27T10:31:43.948Z,3812
2018-04-27T10:32:43.720Z,6008
2018-04-27T10:33:43.969Z,7964
2018-04-27T10:34:43.982Z,7808
2018-04-27T10:35:44.534Z,7412
2018-04-27T10:36:44.101Z,7096
2018-04-27T10:37:44.082Z,7048
2018-04-27T10:38:44.357Z,7020
2018-04-27T10:39:44.942Z,6884
2018-04-27T10:40:44.750Z,6296
2018-04-27T10:41:45.082Z,5704
2018-04-27T10:42:44.776Z,5060
2018-04-27T10:43:45.529Z,4316
2018-04-27T10:44:45.020Z,3812
2018-04-27T10:45:45.600Z,3948
2018-04-27T10:46:45.684Z,4064
2018-04-27T10:47:45.390Z,3920
2018-04-27T10:48:45.342Z,3556
2018-04-27T10:49:45.707Z,3272
2018-04-27T10:50:45.475Z,3152
2018-04-27T10:51:45.598Z,3188
2018-04-27T10:52:46.116Z,3124
2018-04-27T10:53:46.183Z,3292
2018-04-27T10:54:46.291Z,3496
2018-04-27T10:55:46.023Z,3320
2018-04-27T10:56:45.700Z,3212
2018-04-27T10:57:46.374Z,2900
2018-04-27T10:58:46.493Z,2808
2018-04-27T10:59:46.377Z,2776
2018-04-27T11:00:46.606Z,2560
2018-04-27T11:01:46.554Z,2456
2018-04-27T11:02:46.268Z,2912
2018-04-27T11:03:46.727Z,2912
2018-04-27T11:04:46.772Z,3076
2018-04-27T11:05:48.082Z,3292
2018-04-27T11:06:46.608Z,3232
2018-04-27T11:07:46.754Z,2876
2018-04-27T11:08:46.600Z,2512
2018-04-27T11:09:46.601Z,2388
2018-04-27T11:10:47.155Z,2360
2018-04-27T11:11:46.317Z,2368
2018-04-27T11:12:46.325Z,2420
2018-04-27T11:13:47.305Z,2628
2018-04-27T11:14:46.893Z,2516
2018-04-27T11:15:47.386Z,2640
2018-04-27T11:16:46.598Z,3080
2018-04-27T11:17:47.792Z,3200
2018-04-27T11:18:47.224Z,2740
2018-04-27T11:19:47.250Z,2384
2018-04-27T11:20:47.561Z,2536
2018-04-27T11:21:47.571Z,2776
2018-04-27T11:22:47.156Z,3284
2018-04-27T11:23:47.159Z,2900
2018-04-27T11:24:47.981Z,2896
2018-04-27T11:25:48.028Z,2864
2018-04-27T11:26:48.262Z,2796
2018-04-27T11:27:48.291Z,3144
2018-04-27T11:28:48.889Z,2824
2018-04-27T11:29:48.372Z,2712
2018-04-27T11:30:48.131Z,2580
2018-04-27T11:31:47.935Z,2348
2018-04-27T11:32:48.260Z,2356
2018-04-27T11:33:49.126Z,2184
2018-04-27T11:34:49.999Z,2300
2018-04-27T11:35:48.858Z,2436
2018-04-27T11:36:50.599Z,2412
2018-04-27T11:37:50.745Z,2168
2018-04-27T11:38:50.679Z,2164
2018-04-27T11:39:49.250Z,2120
2018-04-27T11:40:49.389Z,2164
2018-04-27T11:41:50.068Z,2356
2018-04-27T11:42:50.241Z,2440
2018-04-27T11:43:50.517Z,2516
2018-04-27T11:44:50.006Z,2440
2018-04-27T11:45:50.082Z,2368
2018-04-27T11:46:50.181Z,2336
2018-04-27T11:47:49.674Z,2312
2018-04-27T11:48:50.561Z,2376
2018-04-27T11:49:50.124Z,2484
2018-04-27T11:50:50.328Z,2588
2018-04-27T11:51:50.314Z,2492
2018-04-27T11:52:50.905Z,2476
2018-04-27T11:53:51.267Z,2420
2018-04-27T11:54:50.958Z,2584
2018-04-27T11:55:51.260Z,2660
2018-04-27T11:56:51.302Z,2604
2018-04-27T11:57:51.261Z,2620
2018-04-27T11:58:51.539Z,2804
2018-04-27T11:59:51.735Z,2968
2018-04-27T12:00:51.650Z,3032
2018-04-27T12:01:51.996Z,3156
2018-04-27T12:02:52.436Z,2964
2018-04-27T12:03:53.120Z,3016
2018-04-27T12:04:53.246Z,3216
2018-04-27T12:05:52.860Z,3436
2018-04-27T12:06:53.234Z,3580
2018-04-27T12:07:52.984Z,3556
2018-04-27T12:08:53.294Z,3308
2018-04-27T12:09:53.290Z,3132
2018-04-27T12:10:53.307Z,3084
2018-04-27T12:11:53.071Z,3104
2018-04-27T12:12:53.547Z,3016
2018-04-27T12:13:53.539Z,2916
2018-04-27T12:14:54.104Z,2800
2018-04-27T12:15:54.417Z,2688
2018-04-27T12:16:54.420Z,2652
2018-04-27T12:17:54.297Z,2568
2018-04-27T12:18:54.222Z,2544
2018-04-27T12:19:54.663Z,2568
2018-04-27T12:20:54.816Z,2608
2018-04-27T12:21:55.351Z,2620
2018-04-27T12:22:55.578Z,2628
2018-04-27T12:23:55.740Z,2644
2018-04-27T12:24:55.498Z,2696
2018-04-27T12:25:56.098Z,2700
2018-04-27T12:26:57.257Z,2860
2018-04-27T12:27:56.723Z,3056
2018-04-27T12:28:57.023Z,3112
2018-04-27T12:29:56.513Z,3176
2018-04-27T12:30:56.854Z,3236
2018-04-27T12:31:58.996Z,3268
2018-04-27T12:32:58.202Z,3312
2018-04-27T12:33:57.092Z,3428
2018-04-27T12:34:57.853Z,3140
2018-04-27T12:35:57.123Z,3332
2018-04-27T12:36:57.394Z,3384
2018-04-27T12:37:57.184Z,3560
2018-04-27T12:38:57.911Z,3588
2018-04-27T12:39:58.157Z,3372
2018-04-27T12:40:58.202Z,3288
2018-04-27T12:41:57.953Z,3320
2018-04-27T12:42:58.579Z,3492
2018-04-27T12:43:59.017Z,3424
2018-04-27T12:44:59.566Z,3184
2018-04-27T12:45:59.294Z,3100
2018-04-27T12:46:58.774Z,3040
2018-04-27T12:47:59.430Z,3060
2018-04-27T12:48:59.583Z,3016
2018-04-27T12:49:59.702Z,2896
2018-04-27T12:50:59.404Z,2720
2018-04-27T12:52:00.432Z,2708
2018-04-27T12:53:01.275Z,2820
2018-04-27T12:54:01.025Z,2912
2018-04-27T12:55:00.521Z,2664
2018-04-27T12:56:00.513Z,2632
2018-04-27T12:57:00.502Z,2716
2018-04-27T12:58:01.139Z,2752
2018-04-27T12:59:00.649Z,2672
2018-04-27T13:01:01.418Z,2524
2018-04-27T13:02:02.023Z,2640
2018-04-27T13:03:01.268Z,2688
2018-04-27T13:04:01.222Z,2668
2018-04-27T13:05:01.570Z,2576
2018-04-27T13:06:01.315Z,2784
2018-04-27T13:07:01.528Z,3028
2018-04-27T13:08:01.547Z,3152
2018-04-27T13:09:02.111Z,3184
2018-04-27T13:10:02.726Z,3236
2018-04-27T13:11:02.627Z,3244
2018-04-27T13:12:02.398Z,3204
2018-04-27T13:13:02.896Z,3092
2018-04-27T13:14:02.883Z,3100
2018-04-27T13:15:03.232Z,3196
2018-04-27T13:16:02.649Z,3272
2018-04-27T13:17:02.945Z,3204
2018-04-27T13:18:03.431Z,3116
2018-04-27T13:19:04.560Z,3104
2018-04-27T13:20:03.679Z,3200
2018-04-27T13:21:04.337Z,3276
2018-04-27T13:22:04.586Z,3256
2018-04-27T13:23:04.840Z,3232
2018-04-27T13:24:04.767Z,3184
2018-04-27T13:25:05.966Z,3108
2018-04-27T13:26:05.231Z,3156
2018-04-27T13:27:05.469Z,3284
2018-04-27T13:28:05.251Z,3200
2018-04-27T13:29:05.151Z,3048
2018-04-27T13:30:05.800Z,3056
2018-04-27T13:31:06.206Z,3128
2018-04-27T13:32:05.794Z,3188
2018-04-27T13:33:06.266Z,3252
2018-04-27T13:34:07.008Z,3384
2018-04-27T13:35:06.988Z,3496
2018-04-27T13:36:06.891Z,3476
2018-04-27T13:37:07.817Z,3384
2018-04-27T13:38:07.827Z,3316
2018-04-27T13:39:08.190Z,3296
2018-04-27T13:40:07.419Z,3296
2018-04-27T13:41:07.256Z,3316
2018-04-27T13:42:08.543Z,3316
2018-04-27T13:43:08.154Z,3276
2018-04-27T13:44:08.490Z,3272
2018-04-27T13:45:08.390Z,3304